M\t Procida — IBJT — position and weather

sailwx.info

Track history (hours):
 
Tides and Currents Weather Stations Pressure Air Temp Water Temp Dewpoint Dewpoint Depression Visibility Wind Speed Wind Dir Waves Ship Positions

M\t Procida

Last reported at 2015-Apr-30 01:29 UTC. Time now 2015-May-04 14:03 UTC.
Position N 37°12' E 015°17'.

Length 149 m; draft 6.2 m.

Type: Ship. MMSI: 247258400.

Date/timePositionNaut miles runAvg speedWind from/ knotsBaromVisibWave heightAir tempDewpointWater temp
2015-Apr-30 01:29N 37°12' E 015°17'19 9.9
2015-Apr-29 23:33N 36°53' E 015°22'1111.2
2015-Apr-29 22:33N 36°42' E 015°17'1110.9
2015-Apr-29 21:33N 36°33' E 015°11'1211.5
2015-Apr-29 20:33N 36°22' E 015°06'1111.1
2015-Apr-29 19:33N 36°13' E 014°58'1111.1
2015-Apr-29 18:33N 36°03' E 014°52'4 3.9
2015-Apr-29 17:33N 35°60' E 014°49'7 7.2
2015-Apr-29 16:33N 35°54' E 014°45'8 7.9
2015-Apr-29 15:33N 35°47' E 014°39'5 0.2
2015-Apr-28 08:18N 35°49' E 014°33'3 4.3
2015-Apr-28 07:33N 35°48' E 014°37'5 4.8
2015-Apr-28 06:33N 35°53' E 014°38'9 9.1
2015-Apr-28 05:33N 35°57' E 014°48'2 2.1
2015-Apr-28 04:30N 35°58' E 014°50'0 0.0
2015-Apr-28 03:24N 35°58' E 014°50'0 0.0
2015-Apr-28 02:30N 35°58' E 014°50'0 0.0
2015-Apr-28 01:33N 35°58' E 014°50'0 0.0
2015-Apr-28 00:33N 35°58' E 014°50'0 0.0
2015-Apr-27 23:34N 35°58' E 014°50'0 0.1
2015-Apr-27 22:33N 35°58' E 014°50'0 0.0
2015-Apr-27 21:27N 35°58' E 014°50'1 1.4
2015-Apr-27 20:33N 35°59' E 014°49'10 8.5
2015-Apr-27 19:26N 36°08' E 014°52'1210.3
2015-Apr-27 18:16N 36°19' E 014°59'  
Track history (hours):
 
Tides and Currents Weather Stations Pressure Air Temp Water Temp Dewpoint Dewpoint Depression Visibility Wind Speed Wind Dir Waves Ship Positions

M\t Procida

Last reported at 2015-Apr-30 01:29 UTC. Time now 2015-May-04 14:03 UTC.
Position N 37°12' E 015°17'.

Length 149 m; draft 6.2 m.

Type: Ship. MMSI: 247258400.

Date/timePositionNaut miles runAvg speedWind from/ knotsBaromVisibWave heightAir tempDewpointWater temp
2015-Apr-30 01:29N 37°12' E 015°17'19 9.9
2015-Apr-29 23:33N 36°53' E 015°22'1111.2
2015-Apr-29 22:33N 36°42' E 015°17'1110.9
2015-Apr-29 21:33N 36°33' E 015°11'1211.5
2015-Apr-29 20:33N 36°22' E 015°06'1111.1
2015-Apr-29 19:33N 36°13' E 014°58'1111.1
2015-Apr-29 18:33N 36°03' E 014°52'4 3.9
2015-Apr-29 17:33N 35°60' E 014°49'7 7.2
2015-Apr-29 16:33N 35°54' E 014°45'8 7.9
2015-Apr-29 15:33N 35°47' E 014°39'5 0.2
2015-Apr-28 08:18N 35°49' E 014°33'3 4.3
2015-Apr-28 07:33N 35°48' E 014°37'5 4.8
2015-Apr-28 06:33N 35°53' E 014°38'9 9.1
2015-Apr-28 05:33N 35°57' E 014°48'2 2.1
2015-Apr-28 04:30N 35°58' E 014°50'0 0.0
2015-Apr-28 03:24N 35°58' E 014°50'0 0.0
2015-Apr-28 02:30N 35°58' E 014°50'0 0.0
2015-Apr-28 01:33N 35°58' E 014°50'0 0.0
2015-Apr-28 00:33N 35°58' E 014°50'0 0.0
2015-Apr-27 23:34N 35°58' E 014°50'0 0.1
2015-Apr-27 22:33N 35°58' E 014°50'0 0.0
2015-Apr-27 21:27N 35°58' E 014°50'1 1.4
2015-Apr-27 20:33N 35°59' E 014°49'10 8.5
2015-Apr-27 19:26N 36°08' E 014°52'1210.3
2015-Apr-27 18:16N 36°19' E 014°59'  

Dump ship's entire track history